Terminal Aerodrome Forecast
Issued by NWS Chicago, IL

Home | Current Version | Previous Version | Text Only | Print | Product List | Glossary Off
Versions: 1 2 3 4 5 6 7 8 9 10 11 12 13 14 15 16 17 18 19 20 21 22 23 24 25 26 27 28 29 30 31 32 33 34 35 36 37 38 39 40

000
FTUS43 KLOT 230200 AAA
TAFRFD
TAF AMD
KRFD 230218Z 2302/2324 17011KT 6SM BR OVC025
     FM230800 19013KT 3SM BR SCT007 OVC015
     FM231500 18014KT 2SM -SHRA BR BKN007 BKN015 OVC020
     FM231900 16012G20KT 2SM RA BR OVC005=

USA.gov is the U.S. government's official web portal to all federal, state and local government web resources and services.